KHVS/HVS METAR and TAF weather

Enter ICAO airport designator
Station Type Date Time Source
KHVS METAR 2022/06/30 00:15 UTC NOAA

KHVS 300015Z AUTO 00000KT 10SM CLR 26/21 A3023 RMK AO2


Station Type Date Time Source
KHVS Decoded METAR 2022/06/30 00:15 UTC NOAA

Station name not available
Jun 29, 2022 - 08:15 PM EDT / 2022.06.30 0015 UTC
Wind: Calm:0
Visibility: 10 mile(s):0
Sky conditions: clear
Temperature: 78 F (26 C)
Dew Point: 69 F (21 C)
Relative Humidity: 73%
Pressure (altimeter): 30.23 in. Hg (1023 hPa)
ob: KHVS 300015Z AUTO 00000KT 10SM CLR 26/21 A3023 RMK AO2
cycle: 0

Station Type Date Time Source
KHVS TAF UTC NOAA

Error!

Example: see airport list